sensor_id;sensor_type;location;lat;lon;timestamp;P1;durP1;ratioP1;P2;durP2;ratioP2
75167;SDS011;63748;48.088;11.476;2022-10-16T00:01:16;1.33;;;1.00;;
75167;SDS011;63748;48.088;11.476;2022-10-16T00:03:43;3.20;;;1.10;;
75167;SDS011;63748;48.088;11.476;2022-10-16T00:06:09;1.10;;;0.90;;
75167;SDS011;63748;48.088;11.476;2022-10-16T00:08:36;1.45;;;0.88;;
75167;SDS011;63748;48.088;11.476;2022-10-16T00:11:04;1.77;;;1.30;;
75167;SDS011;63748;48.088;11.476;2022-10-16T00:15:57;1.73;;;1.00;;
75167;SDS011;63748;48.088;11.476;2022-10-16T00:18:24;1.17;;;0.80;;
75167;SDS011;63748;48.088;11.476;2022-10-16T00:20:50;1.77;;;1.10;;
75167;SDS011;63748;48.088;11.476;2022-10-16T00:23:17;2.15;;;0.90;;
75167;SDS011;63748;48.088;11.476;2022-10-16T00:25:43;3.03;;;1.15;;
75167;SDS011;63748;48.088;11.476;2022-10-16T00:28:09;1.95;;;0.90;;
75167;SDS011;63748;48.088;11.476;2022-10-16T00:30:39;1.40;;;0.77;;
75167;SDS011;63748;48.088;11.476;2022-10-16T00:33:05;2.05;;;1.20;;
75167;SDS011;63748;48.088;11.476;2022-10-16T00:35:31;1.98;;;1.08;;
75167;SDS011;63748;48.088;11.476;2022-10-16T00:37:57;2.20;;;0.98;;
75167;SDS011;63748;48.088;11.476;2022-10-16T00:40:23;1.52;;;0.75;;
75167;SDS011;63748;48.088;11.476;2022-10-16T00:42:50;2.63;;;1.10;;
75167;SDS011;63748;48.088;11.476;2022-10-16T00:45:16;1.88;;;0.80;;
75167;SDS011;63748;48.088;11.476;2022-10-16T00:47:43;2.08;;;0.80;;
75167;SDS011;63748;48.088;11.476;2022-10-16T00:52:44;2.38;;;0.90;;
75167;SDS011;63748;48.088;11.476;2022-10-16T00:55:11;1.25;;;0.70;;
75167;SDS011;63748;48.088;11.476;2022-10-16T00:57:38;2.20;;;0.65;;
75167;SDS011;63748;48.088;11.476;2022-10-16T01:00:05;1.30;;;0.80;;
75167;SDS011;63748;48.088;11.476;2022-10-16T01:02:32;1.42;;;0.77;;
75167;SDS011;63748;48.088;11.476;2022-10-16T01:04:58;1.58;;;0.70;;
75167;SDS011;63748;48.088;11.476;2022-10-16T01:12:42;1.75;;;0.85;;
75167;SDS011;63748;48.088;11.476;2022-10-16T01:15:28;1.08;;;0.80;;
75167;SDS011;63748;48.088;11.476;2022-10-16T01:18:07;0.90;;;0.70;;
75167;SDS011;63748;48.088;11.476;2022-10-16T01:20:35;1.95;;;0.65;;
75167;SDS011;63748;48.088;11.476;2022-10-16T01:23:09;1.00;;;0.80;;
75167;SDS011;63748;48.088;11.476;2022-10-16T01:28:08;4.40;;;3.85;;
75167;SDS011;63748;48.088;11.476;2022-10-16T01:30:37;3.97;;;1.48;;
75167;SDS011;63748;48.088;11.476;2022-10-16T01:33:08;1.55;;;0.98;;
75167;SDS011;63748;48.088;11.476;2022-10-16T01:35:36;1.23;;;0.82;;
75167;SDS011;63748;48.088;11.476;2022-10-16T01:38:04;1.05;;;0.80;;
75167;SDS011;63748;48.088;11.476;2022-10-16T01:40:31;1.27;;;0.93;;
75167;SDS011;63748;48.088;11.476;2022-10-16T01:43:05;2.72;;;1.00;;
75167;SDS011;63748;48.088;11.476;2022-10-16T01:47:59;2.15;;;0.90;;
75167;SDS011;63748;48.088;11.476;2022-10-16T01:50:29;1.00;;;0.82;;
75167;SDS011;63748;48.088;11.476;2022-10-16T01:52:56;0.93;;;0.60;;
75167;SDS011;63748;48.088;11.476;2022-10-16T01:55:28;1.35;;;0.80;;
75167;SDS011;63748;48.088;11.476;2022-10-16T01:57:55;1.40;;;0.82;;
75167;SDS011;63748;48.088;11.476;2022-10-16T02:00:22;2.63;;;0.90;;
75167;SDS011;63748;48.088;11.476;2022-10-16T02:02:49;2.05;;;0.80;;
75167;SDS011;63748;48.088;11.476;2022-10-16T02:05:25;2.85;;;0.93;;
75167;SDS011;63748;48.088;11.476;2022-10-16T02:07:52;1.10;;;0.80;;
75167;SDS011;63748;48.088;11.476;2022-10-16T02:10:19;2.50;;;0.88;;
75167;SDS011;63748;48.088;11.476;2022-10-16T02:12:50;1.65;;;0.70;;
75167;SDS011;63748;48.088;11.476;2022-10-16T02:15:16;1.13;;;0.85;;
75167;SDS011;63748;48.088;11.476;2022-10-16T02:17:43;2.15;;;1.63;;
75167;SDS011;63748;48.088;11.476;2022-10-16T02:20:09;4.70;;;2.35;;
75167;SDS011;63748;48.088;11.476;2022-10-16T02:22:42;4.22;;;2.60;;
75167;SDS011;63748;48.088;11.476;2022-10-16T02:25:15;3.10;;;1.38;;
75167;SDS011;63748;48.088;11.476;2022-10-16T02:27:53;2.58;;;1.08;;
75167;SDS011;63748;48.088;11.476;2022-10-16T02:30:25;2.92;;;1.02;;
75167;SDS011;63748;48.088;11.476;2022-10-16T02:32:53;1.98;;;0.80;;
75167;SDS011;63748;48.088;11.476;2022-10-16T02:35:20;1.50;;;0.90;;
75167;SDS011;63748;48.088;11.476;2022-10-16T02:37:47;1.83;;;0.95;;
75167;SDS011;63748;48.088;11.476;2022-10-16T02:40:14;1.00;;;0.80;;
75167;SDS011;63748;48.088;11.476;2022-10-16T02:42:40;1.65;;;0.90;;
75167;SDS011;63748;48.088;11.476;2022-10-16T02:45:07;1.13;;;0.80;;
75167;SDS011;63748;48.088;11.476;2022-10-16T02:47:34;2.03;;;0.80;;
75167;SDS011;63748;48.088;11.476;2022-10-16T02:50:00;2.65;;;0.90;;
75167;SDS011;63748;48.088;11.476;2022-10-16T02:52:26;2.60;;;0.80;;
75167;SDS011;63748;48.088;11.476;2022-10-16T02:54:52;3.42;;;1.00;;
75167;SDS011;63748;48.088;11.476;2022-10-16T02:57:18;2.10;;;1.15;;
75167;SDS011;63748;48.088;11.476;2022-10-16T02:59:44;1.85;;;0.90;;
75167;SDS011;63748;48.088;11.476;2022-10-16T03:02:10;2.15;;;0.90;;
75167;SDS011;63748;48.088;11.476;2022-10-16T03:04:37;2.33;;;0.90;;
75167;SDS011;63748;48.088;11.476;2022-10-16T03:07:03;1.30;;;0.93;;
75167;SDS011;63748;48.088;11.476;2022-10-16T03:09:29;4.38;;;0.98;;
75167;SDS011;63748;48.088;11.476;2022-10-16T03:11:55;1.77;;;1.00;;
75167;SDS011;63748;48.088;11.476;2022-10-16T03:14:21;0.88;;;0.75;;
75167;SDS011;63748;48.088;11.476;2022-10-16T03:16:47;1.25;;;1.00;;
75167;SDS011;63748;48.088;11.476;2022-10-16T03:19:13;2.38;;;1.00;;
75167;SDS011;63748;48.088;11.476;2022-10-16T03:21:41;1.33;;;0.80;;
75167;SDS011;63748;48.088;11.476;2022-10-16T03:24:07;1.25;;;0.73;;
75167;SDS011;63748;48.088;11.476;2022-10-16T03:26:33;1.75;;;1.10;;
75167;SDS011;63748;48.088;11.476;2022-10-16T03:28:59;2.53;;;0.98;;
75167;SDS011;63748;48.088;11.476;2022-10-16T03:31:27;1.35;;;0.95;;
75167;SDS011;63748;48.088;11.476;2022-10-16T03:33:53;1.20;;;0.90;;
75167;SDS011;63748;48.088;11.476;2022-10-16T03:36:19;1.63;;;1.33;;
75167;SDS011;63748;48.088;11.476;2022-10-16T03:38:45;1.13;;;0.82;;
75167;SDS011;63748;48.088;11.476;2022-10-16T03:41:11;1.67;;;1.02;;
75167;SDS011;63748;48.088;11.476;2022-10-16T03:43:37;1.30;;;1.00;;
75167;SDS011;63748;48.088;11.476;2022-10-16T03:46:04;1.98;;;1.05;;
75167;SDS011;63748;48.088;11.476;2022-10-16T03:48:30;1.63;;;1.23;;
75167;SDS011;63748;48.088;11.476;2022-10-16T03:50:57;5.38;;;1.20;;
75167;SDS011;63748;48.088;11.476;2022-10-16T03:53:23;1.50;;;1.02;;
75167;SDS011;63748;48.088;11.476;2022-10-16T03:55:49;2.00;;;1.13;;
75167;SDS011;63748;48.088;11.476;2022-10-16T03:58:16;1.40;;;0.98;;
75167;SDS011;63748;48.088;11.476;2022-10-16T04:00:42;1.60;;;1.10;;
75167;SDS011;63748;48.088;11.476;2022-10-16T04:03:09;3.03;;;1.85;;
75167;SDS011;63748;48.088;11.476;2022-10-16T04:05:35;1.67;;;0.90;;
75167;SDS011;63748;48.088;11.476;2022-10-16T04:08:01;1.65;;;0.90;;
75167;SDS011;63748;48.088;11.476;2022-10-16T04:10:27;1.77;;;0.95;;
75167;SDS011;63748;48.088;11.476;2022-10-16T04:12:53;2.00;;;1.30;;
75167;SDS011;63748;48.088;11.476;2022-10-16T04:15:25;1.63;;;1.15;;
75167;SDS011;63748;48.088;11.476;2022-10-16T04:17:51;3.97;;;1.25;;
75167;SDS011;63748;48.088;11.476;2022-10-16T04:20:17;4.13;;;1.20;;
75167;SDS011;63748;48.088;11.476;2022-10-16T04:22:44;2.22;;;1.23;;
75167;SDS011;63748;48.088;11.476;2022-10-16T04:25:10;1.73;;;1.08;;
75167;SDS011;63748;48.088;11.476;2022-10-16T04:27:37;2.30;;;1.35;;
75167;SDS011;63748;48.088;11.476;2022-10-16T04:30:03;2.03;;;1.17;;
75167;SDS011;63748;48.088;11.476;2022-10-16T04:32:29;2.15;;;1.40;;
75167;SDS011;63748;48.088;11.476;2022-10-16T04:34:55;2.67;;;1.30;;
75167;SDS011;63748;48.088;11.476;2022-10-16T04:37:25;2.22;;;1.48;;
75167;SDS011;63748;48.088;11.476;2022-10-16T04:39:51;3.05;;;1.30;;
75167;SDS011;63748;48.088;11.476;2022-10-16T04:42:18;2.83;;;1.40;;
75167;SDS011;63748;48.088;11.476;2022-10-16T04:44:44;1.80;;;1.10;;
75167;SDS011;63748;48.088;11.476;2022-10-16T04:47:10;4.78;;;1.13;;
75167;SDS011;63748;48.088;11.476;2022-10-16T04:49:36;2.05;;;1.10;;
75167;SDS011;63748;48.088;11.476;2022-10-16T04:52:02;1.13;;;0.80;;
75167;SDS011;63748;48.088;11.476;2022-10-16T04:54:28;3.55;;;1.17;;
75167;SDS011;63748;48.088;11.476;2022-10-16T04:56:54;1.65;;;1.20;;
75167;SDS011;63748;48.088;11.476;2022-10-16T04:59:20;3.40;;;1.17;;
75167;SDS011;63748;48.088;11.476;2022-10-16T05:01:47;2.05;;;1.20;;
75167;SDS011;63748;48.088;11.476;2022-10-16T05:04:14;3.95;;;1.30;;
75167;SDS011;63748;48.088;11.476;2022-10-16T05:06:40;1.20;;;1.00;;
75167;SDS011;63748;48.088;11.476;2022-10-16T05:09:07;2.30;;;1.15;;
75167;SDS011;63748;48.088;11.476;2022-10-16T05:11:33;2.05;;;1.20;;
75167;SDS011;63748;48.088;11.476;2022-10-16T05:13:59;1.67;;;1.00;;
75167;SDS011;63748;48.088;11.476;2022-10-16T05:16:26;2.13;;;1.05;;
75167;SDS011;63748;48.088;11.476;2022-10-16T05:18:52;2.28;;;1.20;;
75167;SDS011;63748;48.088;11.476;2022-10-16T05:21:18;1.92;;;1.23;;
75167;SDS011;63748;48.088;11.476;2022-10-16T05:23:44;1.75;;;1.15;;
75167;SDS011;63748;48.088;11.476;2022-10-16T05:26:10;1.48;;;1.35;;
75167;SDS011;63748;48.088;11.476;2022-10-16T05:28:36;2.33;;;1.23;;
75167;SDS011;63748;48.088;11.476;2022-10-16T05:31:06;1.63;;;1.25;;
75167;SDS011;63748;48.088;11.476;2022-10-16T05:33:32;2.03;;;1.10;;
75167;SDS011;63748;48.088;11.476;2022-10-16T05:36:05;2.30;;;1.20;;
75167;SDS011;63748;48.088;11.476;2022-10-16T05:38:32;1.73;;;1.17;;
75167;SDS011;63748;48.088;11.476;2022-10-16T05:40:58;1.88;;;1.23;;
75167;SDS011;63748;48.088;11.476;2022-10-16T05:43:24;1.98;;;1.20;;
75167;SDS011;63748;48.088;11.476;2022-10-16T05:45:55;2.10;;;1.20;;
75167;SDS011;63748;48.088;11.476;2022-10-16T05:48:21;3.17;;;1.45;;
75167;SDS011;63748;48.088;11.476;2022-10-16T05:50:48;1.90;;;1.20;;
75167;SDS011;63748;48.088;11.476;2022-10-16T05:53:14;1.90;;;1.52;;
75167;SDS011;63748;48.088;11.476;2022-10-16T05:55:40;1.60;;;1.17;;
75167;SDS011;63748;48.088;11.476;2022-10-16T05:58:06;1.92;;;1.27;;
75167;SDS011;63748;48.088;11.476;2022-10-16T06:00:32;1.55;;;1.05;;
75167;SDS011;63748;48.088;11.476;2022-10-16T06:02:58;2.42;;;1.40;;
75167;SDS011;63748;48.088;11.476;2022-10-16T06:05:25;1.80;;;1.27;;
75167;SDS011;63748;48.088;11.476;2022-10-16T06:07:51;2.15;;;1.27;;
75167;SDS011;63748;48.088;11.476;2022-10-16T06:10:17;2.83;;;1.23;;
75167;SDS011;63748;48.088;11.476;2022-10-16T06:12:43;1.85;;;1.20;;
75167;SDS011;63748;48.088;11.476;2022-10-16T06:15:09;3.42;;;1.73;;
75167;SDS011;63748;48.088;11.476;2022-10-16T06:17:35;2.40;;;1.60;;
75167;SDS011;63748;48.088;11.476;2022-10-16T06:20:02;3.58;;;1.48;;
75167;SDS011;63748;48.088;11.476;2022-10-16T06:22:28;2.30;;;1.52;;
75167;SDS011;63748;48.088;11.476;2022-10-16T06:24:54;3.58;;;1.33;;
75167;SDS011;63748;48.088;11.476;2022-10-16T06:27:20;1.70;;;1.27;;
75167;SDS011;63748;48.088;11.476;2022-10-16T06:29:46;3.63;;;1.40;;
75167;SDS011;63748;48.088;11.476;2022-10-16T06:32:12;1.90;;;1.30;;
75167;SDS011;63748;48.088;11.476;2022-10-16T06:34:38;3.58;;;1.23;;
75167;SDS011;63748;48.088;11.476;2022-10-16T06:37:06;2.00;;;1.35;;
75167;SDS011;63748;48.088;11.476;2022-10-16T06:39:32;1.90;;;1.20;;
75167;SDS011;63748;48.088;11.476;2022-10-16T06:41:58;2.90;;;1.55;;
75167;SDS011;63748;48.088;11.476;2022-10-16T06:44:24;2.13;;;1.52;;
75167;SDS011;63748;48.088;11.476;2022-10-16T06:46:50;1.88;;;1.15;;
75167;SDS011;63748;48.088;11.476;2022-10-16T06:49:16;2.70;;;1.55;;
75167;SDS011;63748;48.088;11.476;2022-10-16T06:51:47;2.92;;;1.60;;
75167;SDS011;63748;48.088;11.476;2022-10-16T06:54:14;3.47;;;1.27;;
75167;SDS011;63748;48.088;11.476;2022-10-16T06:56:41;2.03;;;1.20;;
75167;SDS011;63748;48.088;11.476;2022-10-16T06:59:07;4.03;;;1.38;;
75167;SDS011;63748;48.088;11.476;2022-10-16T07:01:33;2.63;;;1.27;;
75167;SDS011;63748;48.088;11.476;2022-10-16T07:03:59;1.88;;;1.42;;
75167;SDS011;63748;48.088;11.476;2022-10-16T07:06:26;1.80;;;1.45;;
75167;SDS011;63748;48.088;11.476;2022-10-16T07:08:52;1.88;;;1.50;;
75167;SDS011;63748;48.088;11.476;2022-10-16T07:11:20;2.15;;;1.38;;
75167;SDS011;63748;48.088;11.476;2022-10-16T07:16:18;1.88;;;1.40;;
75167;SDS011;63748;48.088;11.476;2022-10-16T07:18:45;4.13;;;1.63;;
75167;SDS011;63748;48.088;11.476;2022-10-16T07:21:14;2.50;;;1.33;;
75167;SDS011;63748;48.088;11.476;2022-10-16T07:23:40;2.50;;;1.20;;
75167;SDS011;63748;48.088;11.476;2022-10-16T07:26:07;4.05;;;1.30;;
75167;SDS011;63748;48.088;11.476;2022-10-16T07:28:33;1.70;;;1.30;;
75167;SDS011;63748;48.088;11.476;2022-10-16T07:31:00;4.18;;;1.60;;
75167;SDS011;63748;48.088;11.476;2022-10-16T07:33:26;1.80;;;1.40;;
75167;SDS011;63748;48.088;11.476;2022-10-16T07:35:53;4.10;;;1.70;;
75167;SDS011;63748;48.088;11.476;2022-10-16T07:38:20;2.13;;;1.48;;
75167;SDS011;63748;48.088;11.476;2022-10-16T07:40:46;1.70;;;1.05;;
75167;SDS011;63748;48.088;11.476;2022-10-16T07:43:12;1.90;;;1.48;;
75167;SDS011;63748;48.088;11.476;2022-10-16T07:45:46;2.53;;;1.60;;
75167;SDS011;63748;48.088;11.476;2022-10-16T07:50:38;2.20;;;1.70;;
75167;SDS011;63748;48.088;11.476;2022-10-16T07:53:05;2.10;;;1.30;;
75167;SDS011;63748;48.088;11.476;2022-10-16T07:55:31;1.88;;;1.23;;
75167;SDS011;63748;48.088;11.476;2022-10-16T07:57:57;2.75;;;1.13;;
75167;SDS011;63748;48.088;11.476;2022-10-16T08:00:23;1.83;;;1.23;;
75167;SDS011;63748;48.088;11.476;2022-10-16T08:02:49;2.50;;;1.30;;
75167;SDS011;63748;48.088;11.476;2022-10-16T08:05:15;2.30;;;1.40;;
75167;SDS011;63748;48.088;11.476;2022-10-16T08:07:41;1.95;;;1.45;;
75167;SDS011;63748;48.088;11.476;2022-10-16T08:10:14;2.65;;;1.70;;
75167;SDS011;63748;48.088;11.476;2022-10-16T08:12:41;1.92;;;1.48;;
75167;SDS011;63748;48.088;11.476;2022-10-16T08:15:07;2.20;;;1.38;;
75167;SDS011;63748;48.088;11.476;2022-10-16T08:17:34;5.38;;;2.00;;
75167;SDS011;63748;48.088;11.476;2022-10-16T08:20:00;2.30;;;1.27;;
75167;SDS011;63748;48.088;11.476;2022-10-16T08:22:26;1.75;;;1.30;;
75167;SDS011;63748;48.088;11.476;2022-10-16T08:24:52;2.85;;;1.65;;
75167;SDS011;63748;48.088;11.476;2022-10-16T08:27:18;2.10;;;1.48;;
75167;SDS011;63748;48.088;11.476;2022-10-16T08:29:44;2.67;;;1.60;;
75167;SDS011;63748;48.088;11.476;2022-10-16T08:32:11;2.28;;;1.48;;
75167;SDS011;63748;48.088;11.476;2022-10-16T08:34:37;4.03;;;1.77;;
75167;SDS011;63748;48.088;11.476;2022-10-16T08:37:03;3.15;;;1.60;;
75167;SDS011;63748;48.088;11.476;2022-10-16T08:39:29;2.72;;;1.60;;
75167;SDS011;63748;48.088;11.476;2022-10-16T08:41:59;4.07;;;1.48;;
75167;SDS011;63748;48.088;11.476;2022-10-16T08:47:13;2.47;;;1.27;;
75167;SDS011;63748;48.088;11.476;2022-10-16T08:49:43;2.03;;;1.50;;
75167;SDS011;63748;48.088;11.476;2022-10-16T08:52:12;2.47;;;1.58;;
75167;SDS011;63748;48.088;11.476;2022-10-16T08:54:43;2.33;;;1.40;;
75167;SDS011;63748;48.088;11.476;2022-10-16T08:57:15;3.00;;;1.55;;
75167;SDS011;63748;48.088;11.476;2022-10-16T08:59:42;2.95;;;1.40;;
75167;SDS011;63748;48.088;11.476;2022-10-16T09:07:58;2.90;;;1.60;;
75167;SDS011;63748;48.088;11.476;2022-10-16T09:13:11;3.63;;;1.58;;
75167;SDS011;63748;48.088;11.476;2022-10-16T09:15:40;2.85;;;1.60;;
75167;SDS011;63748;48.088;11.476;2022-10-16T09:21:02;3.17;;;1.67;;
75167;SDS011;63748;48.088;11.476;2022-10-16T09:23:30;2.35;;;1.63;;
75167;SDS011;63748;48.088;11.476;2022-10-16T09:26:00;2.05;;;1.40;;
75167;SDS011;63748;48.088;11.476;2022-10-16T09:28:27;2.38;;;1.70;;
75167;SDS011;63748;48.088;11.476;2022-10-16T09:30:53;2.10;;;1.60;;
75167;SDS011;63748;48.088;11.476;2022-10-16T09:33:21;1.92;;;1.40;;
75167;SDS011;63748;48.088;11.476;2022-10-16T09:35:51;2.58;;;1.50;;
75167;SDS011;63748;48.088;11.476;2022-10-16T09:38:22;3.25;;;1.60;;
75167;SDS011;63748;48.088;11.476;2022-10-16T09:40:48;2.15;;;1.40;;
75167;SDS011;63748;48.088;11.476;2022-10-16T09:46:00;2.30;;;1.70;;
75167;SDS011;63748;48.088;11.476;2022-10-16T09:48:28;4.10;;;2.05;;
75167;SDS011;63748;48.088;11.476;2022-10-16T09:51:00;3.53;;;1.88;;
75167;SDS011;63748;48.088;11.476;2022-10-16T09:53:27;2.47;;;1.38;;
75167;SDS011;63748;48.088;11.476;2022-10-16T09:56:03;1.48;;;1.25;;
75167;SDS011;63748;48.088;11.476;2022-10-16T09:58:31;1.85;;;1.30;;
75167;SDS011;63748;48.088;11.476;2022-10-16T10:00:58;2.15;;;1.38;;
75167;SDS011;63748;48.088;11.476;2022-10-16T10:03:33;2.25;;;1.50;;
75167;SDS011;63748;48.088;11.476;2022-10-16T10:06:05;3.67;;;1.52;;
75167;SDS011;63748;48.088;11.476;2022-10-16T10:08:32;2.03;;;1.52;;
75167;SDS011;63748;48.088;11.476;2022-10-16T10:10:58;2.00;;;1.30;;
75167;SDS011;63748;48.088;11.476;2022-10-16T10:13:24;2.92;;;1.58;;
75167;SDS011;63748;48.088;11.476;2022-10-16T10:15:52;2.22;;;1.30;;
75167;SDS011;63748;48.088;11.476;2022-10-16T10:18:19;2.30;;;1.38;;
75167;SDS011;63748;48.088;11.476;2022-10-16T10:20:46;1.55;;;1.20;;
75167;SDS011;63748;48.088;11.476;2022-10-16T10:23:23;1.77;;;1.27;;
75167;SDS011;63748;48.088;11.476;2022-10-16T10:28:32;2.50;;;1.30;;
75167;SDS011;63748;48.088;11.476;2022-10-16T10:31:06;1.70;;;1.40;;
75167;SDS011;63748;48.088;11.476;2022-10-16T10:33:41;1.17;;;1.08;;
75167;SDS011;63748;48.088;11.476;2022-10-16T10:43:52;1.70;;;1.30;;
75167;SDS011;63748;48.088;11.476;2022-10-16T10:57:13;1.63;;;1.38;;
75167;SDS011;63748;48.088;11.476;2022-10-16T11:00:03;2.10;;;1.48;;
75167;SDS011;63748;48.088;11.476;2022-10-16T11:05:27;1.90;;;1.40;;
75167;SDS011;63748;48.088;11.476;2022-10-16T11:08:00;2.08;;;1.00;;
75167;SDS011;63748;48.088;11.476;2022-10-16T11:10:33;1.90;;;1.10;;
75167;SDS011;63748;48.088;11.476;2022-10-16T11:13:11;1.92;;;1.33;;
75167;SDS011;63748;48.088;11.476;2022-10-16T11:15:41;1.48;;;1.20;;
75167;SDS011;63748;48.088;11.476;2022-10-16T11:18:22;1.00;;;0.90;;
75167;SDS011;63748;48.088;11.476;2022-10-16T11:20:51;1.35;;;0.98;;
75167;SDS011;63748;48.088;11.476;2022-10-16T11:26:19;1.25;;;1.00;;
75167;SDS011;63748;48.088;11.476;2022-10-16T11:28:53;1.05;;;0.95;;
75167;SDS011;63748;48.088;11.476;2022-10-16T11:36:41;1.38;;;1.00;;
75167;SDS011;63748;48.088;11.476;2022-10-16T11:39:15;1.83;;;1.00;;
75167;SDS011;63748;48.088;11.476;2022-10-16T11:44:31;1.13;;;1.00;;
75167;SDS011;63748;48.088;11.476;2022-10-16T11:49:25;1.52;;;0.80;;
75167;SDS011;63748;48.088;11.476;2022-10-16T11:54:26;1.60;;;0.90;;
75167;SDS011;63748;48.088;11.476;2022-10-16T11:56:54;1.20;;;1.08;;
75167;SDS011;63748;48.088;11.476;2022-10-16T11:59:26;1.50;;;1.40;;
75167;SDS011;63748;48.088;11.476;2022-10-16T12:01:55;0.95;;;0.70;;
75167;SDS011;63748;48.088;11.476;2022-10-16T12:04:27;1.02;;;0.80;;
75167;SDS011;63748;48.088;11.476;2022-10-16T12:11:50;1.20;;;0.93;;
75167;SDS011;63748;48.088;11.476;2022-10-16T12:14:21;1.17;;;1.00;;
75167;SDS011;63748;48.088;11.476;2022-10-16T12:19:20;1.98;;;0.95;;
75167;SDS011;63748;48.088;11.476;2022-10-16T12:21:46;1.00;;;0.90;;
75167;SDS011;63748;48.088;11.476;2022-10-16T12:26:57;1.10;;;1.00;;
75167;SDS011;63748;48.088;11.476;2022-10-16T12:31:52;0.95;;;0.80;;
75167;SDS011;63748;48.088;11.476;2022-10-16T12:35:01;2.08;;;1.85;;
75167;SDS011;63748;48.088;11.476;2022-10-16T12:37:30;1.40;;;0.90;;
75167;SDS011;63748;48.088;11.476;2022-10-16T12:39:54;1.08;;;0.93;;
75167;SDS011;63748;48.088;11.476;2022-10-16T12:42:31;1.45;;;1.23;;
75167;SDS011;63748;48.088;11.476;2022-10-16T12:44:58;1.05;;;0.93;;
75167;SDS011;63748;48.088;11.476;2022-10-16T12:49:56;1.58;;;1.10;;
75167;SDS011;63748;48.088;11.476;2022-10-16T12:52:25;2.90;;;1.17;;
75167;SDS011;63748;48.088;11.476;2022-10-16T12:54:55;1.73;;;0.98;;
75167;SDS011;63748;48.088;11.476;2022-10-16T13:19:11;1.70;;;0.85;;
75167;SDS011;63748;48.088;11.476;2022-10-16T13:21:30;1.73;;;0.80;;
75167;SDS011;63748;48.088;11.476;2022-10-16T13:26:45;0.70;;;0.70;;
75167;SDS011;63748;48.088;11.476;2022-10-16T13:29:12;1.50;;;0.90;;
75167;SDS011;63748;48.088;11.476;2022-10-16T13:34:05;1.80;;;0.90;;
75167;SDS011;63748;48.088;11.476;2022-10-16T13:36:42;1.02;;;0.90;;
75167;SDS011;63748;48.088;11.476;2022-10-16T13:39:13;1.65;;;0.95;;
75167;SDS011;63748;48.088;11.476;2022-10-16T13:41:39;2.08;;;0.80;;
75167;SDS011;63748;48.088;11.476;2022-10-16T13:44:11;0.90;;;0.70;;
75167;SDS011;63748;48.088;11.476;2022-10-16T13:46:38;1.10;;;1.00;;
75167;SDS011;63748;48.088;11.476;2022-10-16T13:49:11;1.65;;;0.77;;
75167;SDS011;63748;48.088;11.476;2022-10-16T13:51:38;1.20;;;1.10;;
75167;SDS011;63748;48.088;11.476;2022-10-16T13:54:04;1.00;;;0.75;;
75167;SDS011;63748;48.088;11.476;2022-10-16T13:56:31;1.38;;;0.70;;
75167;SDS011;63748;48.088;11.476;2022-10-16T13:59:01;1.05;;;0.95;;
75167;SDS011;63748;48.088;11.476;2022-10-16T14:01:28;1.63;;;0.85;;
75167;SDS011;63748;48.088;11.476;2022-10-16T14:03:59;1.73;;;0.77;;
75167;SDS011;63748;48.088;11.476;2022-10-16T14:06:26;1.88;;;0.90;;
75167;SDS011;63748;48.088;11.476;2022-10-16T14:09:00;0.95;;;0.80;;
75167;SDS011;63748;48.088;11.476;2022-10-16T14:11:27;1.40;;;0.60;;
75167;SDS011;63748;48.088;11.476;2022-10-16T14:13:53;0.73;;;0.70;;
75167;SDS011;63748;48.088;11.476;2022-10-16T14:16:21;1.50;;;0.60;;
75167;SDS011;63748;48.088;11.476;2022-10-16T14:18:58;1.15;;;1.05;;
75167;SDS011;63748;48.088;11.476;2022-10-16T14:21:25;2.42;;;0.98;;
75167;SDS011;63748;48.088;11.476;2022-10-16T14:23:52;1.33;;;1.23;;
75167;SDS011;63748;48.088;11.476;2022-10-16T14:26:20;2.03;;;1.00;;
75167;SDS011;63748;48.088;11.476;2022-10-16T14:28:48;1.10;;;0.90;;
75167;SDS011;63748;48.088;11.476;2022-10-16T14:31:25;1.23;;;0.80;;
75167;SDS011;63748;48.088;11.476;2022-10-16T14:33:51;1.08;;;0.88;;
75167;SDS011;63748;48.088;11.476;2022-10-16T14:36:17;1.05;;;0.70;;
75167;SDS011;63748;48.088;11.476;2022-10-16T14:38:59;1.50;;;0.90;;
75167;SDS011;63748;48.088;11.476;2022-10-16T14:41:26;0.60;;;0.60;;
75167;SDS011;63748;48.088;11.476;2022-10-16T14:43:53;1.23;;;0.80;;
75167;SDS011;63748;48.088;11.476;2022-10-16T14:46:28;1.33;;;0.90;;
75167;SDS011;63748;48.088;11.476;2022-10-16T14:48:57;1.55;;;1.02;;
75167;SDS011;63748;48.088;11.476;2022-10-16T14:51:24;1.27;;;0.85;;
75167;SDS011;63748;48.088;11.476;2022-10-16T14:53:50;1.13;;;0.68;;
75167;SDS011;63748;48.088;11.476;2022-10-16T14:56:28;0.63;;;0.55;;
75167;SDS011;63748;48.088;11.476;2022-10-16T14:58:54;0.60;;;0.60;;
75167;SDS011;63748;48.088;11.476;2022-10-16T15:01:21;2.28;;;0.60;;
75167;SDS011;63748;48.088;11.476;2022-10-16T15:03:47;1.05;;;0.88;;
75167;SDS011;63748;48.088;11.476;2022-10-16T15:06:14;0.93;;;0.70;;
75167;SDS011;63748;48.088;11.476;2022-10-16T15:08:40;1.05;;;0.70;;
75167;SDS011;63748;48.088;11.476;2022-10-16T15:11:11;2.20;;;0.80;;
75167;SDS011;63748;48.088;11.476;2022-10-16T15:13:38;1.98;;;0.70;;
75167;SDS011;63748;48.088;11.476;2022-10-16T15:16:04;1.38;;;0.77;;
75167;SDS011;63748;48.088;11.476;2022-10-16T15:18:30;1.35;;;0.82;;
75167;SDS011;63748;48.088;11.476;2022-10-16T15:20:56;0.98;;;0.85;;
75167;SDS011;63748;48.088;11.476;2022-10-16T15:23:22;1.10;;;0.90;;
75167;SDS011;63748;48.088;11.476;2022-10-16T15:25:50;1.00;;;0.85;;
75167;SDS011;63748;48.088;11.476;2022-10-16T15:28:17;0.93;;;0.90;;
75167;SDS011;63748;48.088;11.476;2022-10-16T15:30:43;1.98;;;1.00;;
75167;SDS011;63748;48.088;11.476;2022-10-16T15:33:14;1.42;;;1.00;;
75167;SDS011;63748;48.088;11.476;2022-10-16T15:35:40;2.05;;;1.10;;
75167;SDS011;63748;48.088;11.476;2022-10-16T15:38:08;2.30;;;1.17;;
75167;SDS011;63748;48.088;11.476;2022-10-16T15:40:34;5.68;;;1.35;;
75167;SDS011;63748;48.088;11.476;2022-10-16T15:43:01;3.03;;;1.55;;
75167;SDS011;63748;48.088;11.476;2022-10-16T15:45:27;1.70;;;1.23;;
75167;SDS011;63748;48.088;11.476;2022-10-16T15:47:53;3.03;;;1.33;;
75167;SDS011;63748;48.088;11.476;2022-10-16T15:50:19;3.13;;;1.42;;
75167;SDS011;63748;48.088;11.476;2022-10-16T15:52:45;2.28;;;1.73;;
75167;SDS011;63748;48.088;11.476;2022-10-16T15:55:13;4.38;;;2.25;;
75167;SDS011;63748;48.088;11.476;2022-10-16T15:57:39;4.43;;;1.85;;
75167;SDS011;63748;48.088;11.476;2022-10-16T16:00:08;4.68;;;1.92;;
75167;SDS011;63748;48.088;11.476;2022-10-16T16:02:35;4.05;;;1.98;;
75167;SDS011;63748;48.088;11.476;2022-10-16T16:05:01;5.63;;;3.20;;
75167;SDS011;63748;48.088;11.476;2022-10-16T16:07:27;4.82;;;3.30;;
75167;SDS011;63748;48.088;11.476;2022-10-16T16:09:53;4.65;;;2.90;;
75167;SDS011;63748;48.088;11.476;2022-10-16T16:12:19;3.80;;;2.53;;
75167;SDS011;63748;48.088;11.476;2022-10-16T16:14:45;6.00;;;2.65;;
75167;SDS011;63748;48.088;11.476;2022-10-16T16:17:13;4.15;;;1.92;;
75167;SDS011;63748;48.088;11.476;2022-10-16T16:19:39;6.20;;;2.17;;
75167;SDS011;63748;48.088;11.476;2022-10-16T16:22:05;4.72;;;2.22;;
75167;SDS011;63748;48.088;11.476;2022-10-16T16:24:31;4.60;;;2.08;;
75167;SDS011;63748;48.088;11.476;2022-10-16T16:26:57;4.68;;;2.42;;
75167;SDS011;63748;48.088;11.476;2022-10-16T16:29:23;4.63;;;2.60;;
75167;SDS011;63748;48.088;11.476;2022-10-16T16:31:49;4.85;;;3.13;;
75167;SDS011;63748;48.088;11.476;2022-10-16T16:34:22;5.72;;;3.42;;
75167;SDS011;63748;48.088;11.476;2022-10-16T16:36:48;4.32;;;2.85;;